Time;durP1;ratioP1;P1;durP2;ratioP2;P2;SDS_P1;SDS_P2;PMS_P1;PMS_P2;Temp;Humidity;BMP_temperature;BMP_pressure;BME280_temperature;BME280_humidity;BME280_pressure;Samples;Min_cycle;Max_cycle;Signal;HPM_P1;HPM_P2
2020/12/30 00:00:13;;;;;;;5.13;4.67;;;-1.00;1.40;;;;;;608963;234;30001;-73
2020/12/30 00:02:40;;;;;;;5.87;4.80;;;-1.20;1.40;;;;;;607393;234;26351;-72
2020/12/30 00:05:08;;;;;;;4.60;4.20;;;-1.30;1.40;;;;;;608952;234;24636;-72
2020/12/30 00:07:35;;;;;;;5.67;4.47;;;-1.40;1.40;;;;;;607933;234;25764;-72
2020/12/30 00:10:04;;;;;;;6.60;4.60;;;-1.60;1.40;;;;;;607571;234;24595;-71
2020/12/30 00:12:32;;;;;;;7.00;5.50;;;-1.60;1.40;;;;;;608411;234;24650;-71
2020/12/30 00:15:00;;;;;;;6.20;5.20;;;-1.80;1.40;;;;;;608712;230;24634;-71
2020/12/30 00:17:27;;;;;;;5.27;4.60;;;-1.80;1.40;;;;;;608257;235;31164;-72
2020/12/30 00:19:55;;;;;;;6.23;5.00;;;-1.90;1.40;;;;;;607631;235;24665;-71
2020/12/30 00:22:23;;;;;;;4.53;3.93;;;-1.90;1.40;;;;;;608372;234;24701;-72
2020/12/30 00:27:25;;;;;;;5.78;5.18;;;-2.10;1.40;;;;;;619573;226;31933;-73
2020/12/30 00:29:52;;;;;;;5.37;4.83;;;-2.10;1.40;;;;;;616449;230;24644;-73
2020/12/30 00:32:20;;;;;;;5.93;4.60;;;-2.10;1.40;;;;;;606390;229;24638;-72
2020/12/30 00:34:47;;;;;;;5.30;4.80;;;-2.10;1.40;;;;;;611297;230;32575;-73
2020/12/30 00:37:15;;;;;;;6.97;5.87;;;-2.10;1.40;;;;;;610263;229;32108;-73
2020/12/30 00:39:43;;;;;;;8.90;6.53;;;-2.20;1.40;;;;;;615918;230;23561;-72
2020/12/30 00:42:10;;;;;;;5.10;4.63;;;-2.20;1.40;;;;;;616337;230;24590;-72
2020/12/30 00:44:38;;;;;;;6.40;5.70;;;-2.00;1.40;;;;;;613358;229;32627;-73
2020/12/30 00:47:05;;;;;;;5.67;5.27;;;-1.80;1.40;;;;;;619072;230;23527;-73
2020/12/30 00:49:33;;;;;;;5.40;4.90;;;-1.40;1.40;;;;;;617168;230;24630;-72
2020/12/30 00:52:01;;;;;;;5.50;4.63;;;-1.20;1.40;;;;;;615275;230;24641;-72
2020/12/30 00:54:28;;;;;;;7.70;5.13;;;-1.20;1.40;;;;;;615340;229;24595;-72
2020/12/30 00:56:56;;;;;;;5.23;4.73;;;-1.30;1.40;;;;;;615752;230;25644;-72
2020/12/30 00:59:23;;;;;;;7.70;6.00;;;-1.40;1.40;;;;;;615522;230;24629;-71
2020/12/30 01:01:52;;;;;;;6.32;5.70;;;-1.40;1.40;;;;;;610815;229;32247;-72
2020/12/30 01:04:19;;;;;;;7.03;6.43;;;-1.40;1.40;;;;;;616079;230;23614;-72
2020/12/30 01:06:49;;;;;;;5.23;4.23;;;-1.70;1.40;;;;;;616691;230;24688;-72
2020/12/30 01:09:16;;;;;;;4.97;4.50;;;-1.90;1.40;;;;;;614441;229;24653;-72
2020/12/30 01:11:44;;;;;;;5.40;4.90;;;-1.70;1.40;;;;;;617864;230;24609;-72
2020/12/30 01:14:11;;;;;;;5.77;4.67;;;-2.00;1.40;;;;;;614608;230;24639;-72
2020/12/30 01:16:39;;;;;;;6.20;5.60;;;-1.90;1.40;;;;;;615344;230;24603;-72
2020/12/30 01:19:06;;;;;;;5.43;5.03;;;-1.50;1.40;;;;;;618872;230;24599;-71
2020/12/30 01:21:39;;;;;;;6.37;5.62;;;-1.70;1.40;;;;;;611156;230;32641;-71
2020/12/30 01:24:06;;;;;;;5.65;5.15;;;-1.80;1.40;;;;;;607717;229;32670;-71
2020/12/30 01:26:34;;;;;;;7.60;5.20;;;-2.10;1.40;;;;;;615353;230;23553;-71
2020/12/30 01:29:02;;;;;;;5.60;5.10;;;-2.30;1.40;;;;;;617366;230;24612;-71
2020/12/30 01:31:29;;;;;;;5.03;4.60;;;-2.50;1.40;;;;;;616873;230;26695;-72
2020/12/30 01:33:57;;;;;;;4.80;4.20;;;-2.40;1.40;;;;;;609782;230;33281;-71
2020/12/30 01:36:24;;;;;;;5.67;4.30;;;-2.50;1.40;;;;;;617367;230;23657;-72
2020/12/30 01:38:52;;;;;;;3.40;3.10;;;-2.30;1.40;;;;;;614588;230;24628;-71
2020/12/30 01:41:20;;;;;;;5.00;3.77;;;-2.30;1.40;;;;;;615856;229;25799;-72
2020/12/30 01:43:57;;;;;;;3.77;3.37;;;-2.20;1.40;;;;;;612088;230;32647;-71
2020/12/30 01:46:45;;;;;;;3.95;3.65;;;-2.30;1.40;;;;;;610358;229;32295;-71
2020/12/30 01:49:13;;;;;;;3.93;3.57;;;-2.30;1.40;;;;;;616856;229;23619;-70
2020/12/30 01:51:40;;;;;;;5.83;3.93;;;-2.40;1.40;;;;;;626958;226;25636;-71
2020/12/30 01:54:12;;;;;;;4.07;3.60;;;-2.30;1.40;;;;;;623245;225;32402;-71
2020/12/30 01:56:39;;;;;;;3.47;3.27;;;-2.30;1.40;;;;;;629903;226;24605;-71
2020/12/30 01:59:07;;;;;;;3.60;3.30;;;-2.40;1.40;;;;;;625928;226;32024;-71
2020/12/30 02:01:36;;;;;;;5.73;3.63;;;-2.30;1.40;;;;;;628750;226;23502;-72
2020/12/30 02:04:04;;;;;;;4.13;3.73;;;-2.40;1.40;;;;;;628914;225;24571;-73
2020/12/30 02:06:32;;;;;;;3.47;3.27;;;-2.20;1.40;;;;;;626664;225;24584;-72
2020/12/30 02:08:59;;;;;;;3.33;3.03;;;-2.00;1.40;;;;;;615880;230;24611;-71
2020/12/30 02:11:27;;;;;;;4.50;3.40;;;-1.90;1.40;;;;;;622148;224;32061;-72
2020/12/30 02:13:59;;;;;;;5.00;4.18;;;-2.20;1.40;;;;;;618017;229;31757;-71
2020/12/30 02:16:27;;;;;;;3.93;3.63;;;-2.40;1.40;;;;;;625848;226;26761;-71
2020/12/30 02:18:54;;;;;;;4.37;3.30;;;-2.50;1.40;;;;;;621293;226;42529;-71
2020/12/30 02:21:22;;;;;;;4.73;4.03;;;-2.50;1.40;;;;;;626959;226;24748;-72
2020/12/30 02:23:49;;;;;;;4.30;3.92;;;-2.50;1.40;;;;;;622007;225;32026;-71
2020/12/30 02:26:17;;;;;;;4.63;4.23;;;-2.50;1.40;;;;;;628216;225;23522;-72
2020/12/30 02:28:45;;;;;;;6.17;5.50;;;-2.20;1.40;;;;;;620487;229;25645;-72
2020/12/30 02:31:12;;;;;;;4.37;4.07;;;-2.10;1.40;;;;;;629732;226;24609;-71
2020/12/30 02:33:40;;;;;;;4.33;3.50;;;-1.80;1.40;;;;;;628387;225;28783;-71
2020/12/30 02:36:07;;;;;;;4.80;3.80;;;-1.80;1.40;;;;;;611078;230;32600;-72
2020/12/30 02:38:35;;;;;;;4.33;3.93;;;-1.80;1.40;;;;;;630679;226;24572;-72
2020/12/30 02:41:02;;;;;;;4.60;4.20;;;-1.70;1.40;;;;;;629912;225;24565;-71
2020/12/30 02:43:30;;;;;;;4.23;3.93;;;-1.60;1.40;;;;;;630194;225;24569;-72
2020/12/30 02:45:58;;;;;;;6.03;4.80;;;-1.50;1.40;;;;;;629234;226;24575;-71
2020/12/30 02:48:25;;;;;;;5.03;4.60;;;-1.40;1.40;;;;;;625654;224;24567;-71
2020/12/30 02:50:53;;;;;;;4.87;4.47;;;-1.20;1.40;;;;;;624473;225;32644;-70
2020/12/30 02:53:20;;;;;;;5.37;4.50;;;-1.20;1.40;;;;;;609725;230;32302;-71
2020/12/30 02:55:48;;;;;;;4.03;3.77;;;-1.10;1.40;;;;;;629222;225;28025;-71
2020/12/30 02:58:16;;;;;;;6.37;4.77;;;-1.10;1.40;;;;;;613922;230;26707;-72
2020/12/30 03:00:43;;;;;;;4.50;4.10;;;-1.10;1.40;;;;;;627717;225;25679;-70
2020/12/30 03:03:11;;;;;;;4.87;3.83;;;-1.10;1.40;;;;;;615175;229;24607;-72
2020/12/30 03:05:38;;;;;;;5.13;4.60;;;-1.10;1.40;;;;;;631798;225;24696;-72
2020/12/30 03:08:06;;;;;;;4.40;4.00;;;-1.20;1.40;;;;;;617345;230;24614;-72
2020/12/30 03:10:34;;;;;;;4.67;4.27;;;-1.30;1.40;;;;;;629902;225;25676;-71
2020/12/30 03:13:01;;;;;;;4.77;4.40;;;-1.50;1.40;;;;;;628062;225;24599;-72
2020/12/30 03:15:29;;;;;;;4.77;4.37;;;-1.70;1.40;;;;;;615698;230;24631;-71
2020/12/30 03:17:56;;;;;;;6.28;4.30;;;-1.80;1.40;;;;;;624870;225;32484;-72
2020/12/30 03:20:24;;;;;;;5.20;4.70;;;-1.90;1.40;;;;;;612221;230;32165;-72
2020/12/30 03:22:51;;;;;;;5.10;4.67;;;-1.90;1.40;;;;;;626757;225;23505;-72
2020/12/30 03:25:19;;;;;;;5.73;4.70;;;-1.90;1.40;;;;;;616806;230;26000;-72
2020/12/30 03:27:47;;;;;;;4.30;3.90;;;-1.90;1.40;;;;;;627466;226;24581;-71
2020/12/30 03:30:14;;;;;;;4.50;4.10;;;-1.80;1.40;;;;;;626668;225;24651;-71
2020/12/30 03:32:42;;;;;;;6.90;4.73;;;-1.70;1.40;;;;;;627774;226;24579;-72
2020/12/30 03:35:09;;;;;;;5.20;3.67;;;-1.70;1.40;;;;;;615891;230;24718;-72
2020/12/30 03:37:37;;;;;;;4.67;4.37;;;-1.70;1.40;;;;;;617639;230;25717;-72
2020/12/30 03:40:05;;;;;;;4.37;3.97;;;-1.60;1.40;;;;;;629244;226;24544;-72
2020/12/30 03:42:32;;;;;;;4.70;4.30;;;-1.60;1.40;;;;;;627376;226;24550;-71
2020/12/30 03:45:00;;;;;;;5.45;4.95;;;-1.70;1.40;;;;;;620770;226;31988;-71
2020/12/30 03:47:30;;;;;;;5.03;4.47;;;-1.80;1.40;;;;;;617642;230;23560;-72
2020/12/30 03:49:56;;;;;;;4.20;3.80;;;-1.70;1.40;;;;;;626892;227;26722;-72
2020/12/30 03:52:24;;;;;;;4.63;4.20;;;-1.60;1.40;;;;;;626645;228;24937;-72
2020/12/30 03:54:51;;;;;;;4.87;4.47;;;-1.50;1.40;;;;;;625183;226;24569;-72
2020/12/30 03:57:19;;;;;;;4.67;4.27;;;-1.50;1.40;;;;;;627569;226;24546;-72
2020/12/30 03:59:47;;;;;;;4.90;4.40;;;-1.40;1.40;;;;;;620720;225;32043;-71
2020/12/30 04:02:14;;;;;;;5.17;4.67;;;-1.30;1.40;;;;;;627526;225;23506;-72
2020/12/30 04:04:42;;;;;;;5.37;4.87;;;-1.20;1.40;;;;;;628760;226;24576;-72
2020/12/30 04:07:09;;;;;;;7.60;5.10;;;-1.20;1.40;;;;;;628972;227;24570;-72
2020/12/30 04:09:37;;;;;;;4.50;4.10;;;-1.20;1.40;;;;;;628265;226;24562;-73
2020/12/30 04:12:05;;;;;;;4.77;4.40;;;-1.30;1.40;;;;;;626991;227;25504;-72
2020/12/30 04:14:32;;;;;;;4.10;3.80;;;-1.20;1.40;;;;;;628129;226;24551;-72
2020/12/30 04:17:00;;;;;;;4.50;4.20;;;-0.90;1.40;;;;;;627123;226;25667;-72
2020/12/30 04:19:27;;;;;;;5.40;4.90;;;-0.80;1.40;;;;;;629005;226;24542;-72
2020/12/30 04:21:55;;;;;;;5.15;4.60;;;-0.80;1.40;;;;;;624209;225;32038;-72
2020/12/30 04:24:23;;;;;;;4.73;4.43;;;-0.80;1.40;;;;;;629882;226;26168;-72
2020/12/30 04:26:50;;;;;;;5.25;4.40;;;-0.90;1.40;;;;;;623491;226;31926;-72
2020/12/30 04:31:55;;;;;;;4.70;3.60;;;-0.60;1.40;;;;;;646523;212;31706;-71
2020/12/30 04:34:23;;;;;;;5.00;4.10;;;-0.60;1.40;;;;;;639142;221;23509;-71
2020/12/30 04:36:50;;;;;;;3.80;3.50;;;-0.60;1.40;;;;;;641316;221;26684;-71
2020/12/30 04:39:18;;;;;;;4.97;4.30;;;-0.50;1.40;;;;;;635418;221;24557;-72
2020/12/30 04:41:45;;;;;;;3.80;3.60;;;-0.50;1.40;;;;;;628686;225;24794;-71
2020/12/30 04:44:13;;;;;;;5.13;4.13;;;-0.70;1.40;;;;;;632584;225;24586;-71
2020/12/30 04:46:41;;;;;;;4.17;3.77;;;-0.90;1.40;;;;;;626187;224;24603;-71
2020/12/30 04:49:08;;;;;;;3.90;3.60;;;-0.90;1.40;;;;;;627192;225;24990;-72
2020/12/30 04:51:36;;;;;;;3.53;3.23;;;-0.90;1.40;;;;;;629497;225;26927;-71
2020/12/30 04:54:03;;;;;;;3.53;3.23;;;-0.90;1.40;;;;;;630965;225;24568;-71
2020/12/30 04:56:58;;;;;;;4.37;3.97;;;-0.70;1.40;;;;;;633699;225;24551;-70
2020/12/30 04:59:36;;;;;;;3.97;3.55;;;-0.80;1.40;;;;;;648412;216;32128;-72
2020/12/30 05:02:06;;;;;;;4.57;3.93;;;-0.80;1.40;;;;;;641486;221;23497;-71
2020/12/30 05:04:34;;;;;;;6.33;3.83;;;-0.90;1.40;;;;;;639555;221;27980;-71
2020/12/30 05:07:05;;;;;;;6.20;4.00;;;-0.80;1.40;;;;;;643519;220;24505;-71
2020/12/30 05:09:32;;;;;;;4.43;4.07;;;-0.80;1.40;;;;;;643466;221;24520;-72
2020/12/30 05:12:00;;;;;;;5.93;5.00;;;-0.90;1.40;;;;;;641256;221;24553;-72
2020/12/30 05:14:27;;;;;;;6.60;5.20;;;-0.80;1.40;;;;;;643005;221;24522;-72
2020/12/30 05:16:55;;;;;;;4.97;3.97;;;-0.70;1.40;;;;;;640885;221;24558;-71
2020/12/30 05:19:23;;;;;;;5.00;4.20;;;-0.50;1.40;;;;;;639361;221;24813;-71
2020/12/30 05:21:50;;;;;;;5.10;4.67;;;-0.30;1.40;;;;;;640157;220;29828;-72
2020/12/30 05:24:18;;;;;;;4.47;3.80;;;-0.40;1.40;;;;;;642490;221;24560;-71
2020/12/30 05:26:45;;;;;;;4.70;4.30;;;-0.30;1.40;;;;;;639831;221;24522;-72
2020/12/30 05:29:13;;;;;;;5.57;3.90;;;-0.10;1.40;;;;;;639343;221;24533;-72
2020/12/30 05:31:40;;;;;;;3.80;3.40;;;0.00;1.40;;;;;;633821;221;31797;-72
2020/12/30 05:35:51;;;;;;;4.70;3.80;;;0.20;1.40;;;0.69;100.00;93874.55;650284;216;31623;-72
2020/12/30 05:38:19;;;;;;;3.90;3.60;;;0.20;1.40;;;0.65;100.00;93873.41;641992;220;23514;-71
2020/12/30 05:40:47;;;;;;;5.57;5.07;;;0.20;1.40;;;0.62;100.00;93876.86;641423;220;24522;-72
2020/12/30 05:43:16;;;;;;;3.60;3.40;;;0.10;1.40;;;0.60;100.00;93880.13;642172;221;24501;-72
2020/12/30 05:45:47;;;;;;;4.28;3.87;;;0.10;1.40;;;0.61;100.00;93886.15;637044;220;31726;-71
2020/12/30 05:48:15;;;;;;;4.60;3.90;;;0.00;1.40;;;0.56;100.00;93885.55;642400;221;28750;-72
2020/12/30 05:50:50;;;;;;;3.67;3.47;;;0.00;1.40;;;0.53;100.00;93892.27;642115;220;24532;-71
2020/12/30 05:53:18;;;;;;;4.13;3.70;;;-0.10;1.40;;;0.50;100.00;93891.34;642272;220;24525;-72
2020/12/30 05:55:49;;;;;;;4.63;4.23;;;-0.10;1.40;;;0.47;100.00;93896.22;642434;220;24526;-72
2020/12/30 05:58:17;;;;;;;4.07;3.77;;;-0.10;1.40;;;0.53;100.00;93896.01;643947;220;24701;-72
2020/12/30 06:00:45;;;;;;;5.22;3.92;;;-0.10;1.40;;;0.55;100.00;93897.22;633800;221;31852;-72
2020/12/30 06:03:14;;;;;;;4.40;4.00;;;-0.10;1.40;;;0.57;100.00;93901.86;638922;220;31729;-73
2020/12/30 06:05:42;;;;;;;6.70;5.00;;;-0.10;1.40;;;0.57;100.00;93904.16;638123;220;23472;-72
2020/12/30 06:08:11;;;;;;;5.97;5.47;;;-0.10;1.40;;;-143.44;100.00;122422.95;641127;220;24505;-72
2020/12/30 06:10:39;;;;;;;3.90;3.50;;;0.00;1.40;;;-143.44;100.00;122422.95;641207;221;24702;-73
2020/12/30 06:13:07;;;;;;;4.00;3.70;;;0.10;1.40;;;-143.44;100.00;122422.95;640213;221;24767;-71
2020/12/30 06:15:36;;;;;;;4.33;3.93;;;0.10;1.40;;;-143.44;100.00;122422.95;640077;221;29856;-71
2020/12/30 06:18:04;;;;;;;4.80;4.00;;;0.00;1.40;;;-143.44;100.00;122422.95;640676;221;24501;-71
2020/12/30 06:20:33;;;;;;;4.97;4.67;;;0.10;1.40;;;-143.44;100.00;122422.95;638611;220;24556;-71
2020/12/30 06:25:35;;;;;;;4.10;3.80;;;0.00;1.40;;;;;;647332;216;31588;-71
2020/12/30 06:28:07;;;;;;;4.50;4.20;;;0.00;1.40;;;;;;638291;220;24605;-71
2020/12/30 06:30:34;;;;;;;3.73;3.43;;;0.00;1.40;;;;;;643644;219;27726;-71
2020/12/30 06:33:02;;;;;;;4.07;3.50;;;0.00;1.40;;;;;;662060;211;31421;-72
2020/12/30 06:35:30;;;;;;;4.67;4.27;;;0.00;1.40;;;;;;668143;211;23402;-72
2020/12/30 06:37:57;;;;;;;4.10;3.70;;;-0.10;1.40;;;;;;664352;211;31501;-70
2020/12/30 06:40:29;;;;;;;4.30;3.90;;;-0.10;1.40;;;;;;646304;216;24562;-70
2020/12/30 06:43:00;;;;;;;5.03;4.10;;;-0.20;1.40;;;;;;640649;220;24514;-71
2020/12/30 06:45:48;;;;;;;3.95;3.60;;;-0.10;1.40;;;;;;650269;215;31579;-71
2020/12/30 06:48:16;;;;;;;6.60;4.60;;;-0.10;1.40;;;;;;659081;215;23435;-71
2020/12/30 06:50:43;;;;;;;4.80;4.27;;;-0.20;1.40;;;;;;628374;225;28876;-71
2020/12/30 06:53:28;;;;;;;4.37;4.00;;;-0.10;1.40;;;;;;657287;215;24470;-72
2020/12/30 06:56:06;;;;;;;4.40;4.00;;;-0.10;1.40;;;;;;618450;226;31969;-72
2020/12/30 06:58:43;;;;;;;4.93;3.87;;;0.00;1.40;;;;;;639599;220;24878;-72
2020/12/30 07:01:12;;;;;;;4.60;4.20;;;0.00;1.40;;;;;;641530;220;24522;-73
2020/12/30 07:03:39;;;;;;;3.90;3.60;;;0.00;1.40;;;;;;628132;227;26900;-72
2020/12/30 07:06:31;;;;;;;4.40;4.10;;;-0.10;1.40;;;;;;621243;229;24612;-72
2020/12/30 07:09:11;;;;;;;4.30;3.90;;;0.00;1.40;;;;;;647580;216;31566;-73
2020/12/30 07:11:41;;;;;;;5.83;4.30;;;-0.10;1.40;;;;;;642479;220;23476;-74
2020/12/30 07:14:13;;;;;;;5.25;3.47;;;-0.10;1.40;;;;;;635384;221;31856;-73
2020/12/30 07:16:41;;;;;;;4.47;4.07;;;-0.10;1.40;;;;;;639767;220;23562;-74
2020/12/30 07:19:11;;;;;;;7.15;5.40;;;-0.10;1.40;;;;;;635858;221;43033;-74
2020/12/30 07:21:47;;;;;;;4.30;3.90;;;0.10;1.40;;;;;;634739;220;31874;-74
2020/12/30 07:24:14;;;;;;;4.83;4.47;;;0.20;1.40;;;;;;642132;220;23485;-74
2020/12/30 07:26:42;;;;;;;4.70;3.93;;;0.20;1.40;;;;;;638620;221;24576;-74
2020/12/30 07:29:09;;;;;;;4.40;4.00;;;0.20;1.40;;;;;;640096;221;24519;-73
2020/12/30 07:34:17;;;;;;;5.07;3.58;;;0.20;1.40;;;;;;646820;216;31684;-71
2020/12/30 07:36:45;;;;;;;3.80;3.50;;;0.10;1.40;;;;;;640946;220;27806;-72
2020/12/30 07:39:13;;;;;;;4.57;4.20;;;0.10;1.40;;;;;;639723;220;24550;-71
2020/12/30 07:41:42;;;;;;;3.87;3.43;;;0.00;1.40;;;;;;639387;220;24526;-72
2020/12/30 07:44:09;;;;;;;3.80;3.50;;;-0.10;1.40;;;;;;641381;221;27894;-72
2020/12/30 07:46:37;;;;;;;4.50;3.73;;;-0.20;1.40;;;;;;640522;221;24531;-72
2020/12/30 07:49:11;;;;;;;5.30;3.50;;;-0.30;1.40;;;;;;642539;221;24507;-73
2020/12/30 07:51:46;;;;;;;3.73;3.43;;;-0.30;1.40;;;;;;653914;216;24464;-73
2020/12/30 07:54:14;;;;;;;3.67;3.20;;;-0.10;1.40;;;;;;669179;211;24442;-72
2020/12/30 07:56:41;;;;;;;4.47;3.13;;;0.10;1.40;;;;;;668814;211;24449;-73
2020/12/30 07:59:09;;;;;;;3.97;3.57;;;0.20;1.40;;;;;;666876;211;24566;-72
2020/12/30 08:01:37;;;;;;;4.70;4.30;;;0.20;1.40;;;;;;670924;211;24516;-72
2020/12/30 08:04:07;;;;;;;5.00;4.60;;;0.30;1.40;;;;;;670120;211;24406;-72
2020/12/30 08:06:42;;;;;;;7.13;5.43;;;0.40;1.40;;;;;;670331;211;24409;-71
2020/12/30 08:09:10;;;;;;;14.00;9.30;;;0.60;1.40;;;;;;666804;211;24419;-72
2020/12/30 08:11:37;;;;;;;9.63;7.30;;;0.70;1.40;;;;;;670515;211;24424;-71
2020/12/30 08:14:08;;;;;;;12.00;5.67;;;0.80;1.40;;;;;;671215;211;24408;-71
2020/12/30 08:16:35;;;;;;;6.67;5.80;;;0.80;1.40;;;;;;667233;211;24493;-72
2020/12/30 08:19:03;;;;;;;6.07;5.10;;;1.00;1.40;;;;;;672722;211;24423;-71
2020/12/30 08:21:30;;;;;;;4.57;4.07;;;1.10;1.40;;;;;;667560;211;24447;-71
2020/12/30 08:26:32;;;;;;;5.05;3.28;;;1.00;1.40;;;;;;645581;216;31574;-72
2020/12/30 08:31:36;;;;;;;5.10;3.20;;;1.10;1.40;;;;;;646149;216;42162;-71
2020/12/30 08:34:03;;;;;;;3.60;3.30;;;1.20;1.40;;;;;;642923;220;23473;-72
2020/12/30 08:36:31;;;;;;;3.37;3.00;;;1.20;1.40;;;;;;641519;221;29871;-72
2020/12/30 08:38:59;;;;;;;3.30;3.00;;;1.30;1.40;;;;;;634964;220;31739;-71
2020/12/30 08:41:27;;;;;;;4.63;3.80;;;1.40;1.40;;;;;;640701;221;23468;-71
2020/12/30 08:43:56;;;;;;;2.65;2.30;;;1.40;1.40;;;;;;629358;221;32153;-71
2020/12/30 08:46:21;;;;;;;3.03;2.63;;;1.50;1.40;;;;;;629555;225;27795;-76
2020/12/30 08:48:49;;;;;;;2.40;2.20;;;1.60;1.40;;;;;;626932;225;28899;-71
2020/12/30 08:51:24;;;;;;;2.90;2.60;;;1.70;1.40;;;;;;629393;225;29921;-71
2020/12/30 08:53:52;;;;;;;2.00;1.80;;;1.80;1.40;;;;;;627596;225;24557;-72
2020/12/30 08:56:20;;;;;;;4.93;2.50;;;1.80;1.40;;;;;;633888;225;25687;-71
2020/12/30 08:58:52;;;;;;;2.53;2.33;;;1.90;1.40;;;;;;657853;215;26601;-71
2020/12/30 09:01:20;;;;;;;2.83;2.60;;;3.10;1.40;;;;;;655244;215;24479;-71
2020/12/30 09:03:48;;;;;;;2.63;2.43;;;4.70;1.40;;;;;;658802;215;26582;-71
2020/12/30 09:06:24;;;;;;;2.67;2.47;;;6.00;1.40;;;;;;654117;215;24469;-70
2020/12/30 09:11:26;;;;;;;3.80;2.00;;;5.10;1.40;;;;;;646797;216;31527;-69
2020/12/30 09:13:53;;;;;;;2.23;1.90;;;3.90;1.40;;;;;;641477;220;23490;-72
2020/12/30 09:16:21;;;;;;;9.40;7.00;;;3.20;1.40;;;;;;640166;221;26637;-72
2020/12/30 09:18:48;;;;;;;5.77;5.00;;;3.10;1.40;;;;;;640604;221;25081;-72
2020/12/30 09:21:22;;;;;;;5.07;3.35;;;2.70;1.40;;;;;;635357;221;32295;-72
2020/12/30 09:23:49;;;;;;;2.80;2.60;;;2.60;1.40;;;;;;633602;221;31905;-71
2020/12/30 09:26:27;;;;;;;2.85;2.12;;;2.60;1.40;;;;;;633915;220;31863;-71
2020/12/30 09:28:54;;;;;;;2.83;2.63;;;2.60;1.40;;;;;;641518;221;23458;-71
2020/12/30 09:31:22;;;;;;;1.60;1.50;;;2.60;1.40;;;;;;635795;221;31778;-71
2020/12/30 09:33:49;;;;;;;3.23;2.40;;;2.70;1.40;;;;;;644202;221;24719;-71
2020/12/30 09:36:17;;;;;;;2.00;1.90;;;2.40;1.40;;;;;;670835;211;24410;-71
2020/12/30 09:38:44;;;;;;;2.00;1.90;;;2.40;1.40;;;;;;653306;218;24525;-70
2020/12/30 09:41:12;;;;;;;1.73;1.63;;;2.30;1.40;;;;;;669961;211;24419;-72
2020/12/30 09:43:46;;;;;;;2.05;1.60;;;2.30;1.40;;;;;;658307;211;32414;-72
2020/12/30 09:46:19;;;;;;;2.10;1.70;;;2.30;1.40;;;;;;650240;215;31737;-71
2020/12/30 09:48:46;;;;;;;1.87;1.73;;;2.20;1.40;;;;;;655111;216;25648;-71
2020/12/30 09:51:15;;;;;;;1.90;1.80;;;2.10;1.40;;;;;;633282;224;29926;-72
2020/12/30 09:53:44;;;;;;;2.30;2.10;;;2.10;1.40;;;;;;641943;221;30877;-71
2020/12/30 09:56:13;;;;;;;2.40;1.63;;;2.10;1.40;;;;;;657998;216;24463;-71
2020/12/30 09:58:40;;;;;;;2.07;1.87;;;2.10;1.40;;;;;;656206;215;24479;-71
2020/12/30 10:01:08;;;;;;;2.53;1.87;;;2.10;1.40;;;;;;640978;221;24493;-71
2020/12/30 10:03:35;;;;;;;2.60;2.40;;;2.20;1.40;;;;;;640297;221;25709;-71
2020/12/30 10:06:03;;;;;;;2.60;2.40;;;2.30;1.40;;;;;;659218;216;24448;-71
2020/12/30 10:08:31;;;;;;;2.27;2.10;;;2.40;1.40;;;;;;633785;225;26170;-72
2020/12/30 10:10:58;;;;;;;2.60;2.10;;;2.50;1.40;;;;;;655677;216;27000;-72
2020/12/30 10:13:26;;;;;;;2.97;2.77;;;2.60;1.40;;;;;;657806;216;29793;-72
2020/12/30 10:15:53;;;;;;;2.43;2.23;;;2.70;1.40;;;;;;655262;216;24696;-71
2020/12/30 10:18:21;;;;;;;2.73;2.50;;;2.80;1.40;;;;;;630270;225;24561;-72
2020/12/30 10:20:51;;;;;;;2.45;1.85;;;3.40;1.40;;;;;;636155;220;31775;-72
2020/12/30 10:23:16;;;;;;;2.20;2.03;;;3.60;1.40;;;;;;631569;224;23533;-72
2020/12/30 10:25:44;;;;;;;1.80;1.70;;;3.70;1.40;;;;;;656897;215;24450;-71
2020/12/30 10:28:11;;;;;;;3.80;2.67;;;3.70;1.40;;;;;;659070;215;24433;-70
2020/12/30 10:30:39;;;;;;;2.50;2.30;;;3.80;1.40;;;;;;655453;215;24491;-71
2020/12/30 10:33:06;;;;;;;2.97;2.40;;;3.80;1.40;;;;;;655684;215;24500;-70
2020/12/30 10:35:34;;;;;;;2.93;2.73;;;3.80;1.40;;;;;;631929;224;25818;-70
2020/12/30 10:38:02;;;;;;;3.53;2.13;;;3.60;1.40;;;;;;643776;220;27805;-71
2020/12/30 10:40:29;;;;;;;2.43;2.23;;;3.50;1.40;;;;;;654206;215;24496;-71
2020/12/30 10:42:57;;;;;;;3.33;3.13;;;3.50;1.40;;;;;;632392;225;24544;-71
2020/12/30 10:45:24;;;;;;;2.83;2.00;;;3.30;1.40;;;;;;657476;215;24443;-71
2020/12/30 10:47:52;;;;;;;2.10;1.90;;;3.20;1.40;;;;;;648468;215;42198;-71
2020/12/30 10:50:19;;;;;;;2.00;1.90;;;3.30;1.40;;;;;;633963;225;24591;-71
2020/12/30 10:52:47;;;;;;;2.33;2.12;;;3.30;1.40;;;;;;648096;215;31597;-71
2020/12/30 10:55:15;;;;;;;1.87;1.77;;;3.20;1.40;;;;;;628208;225;23519;-71
2020/12/30 10:57:42;;;;;;;2.60;2.40;;;3.40;1.40;;;;;;653392;215;24462;-72
2020/12/30 11:00:10;;;;;;;2.60;2.17;;;3.40;1.40;;;;;;654526;216;24444;-72
2020/12/30 11:02:37;;;;;;;3.28;2.00;;;3.50;1.40;;;;;;648850;216;32283;-72
2020/12/30 11:05:05;;;;;;;2.30;2.10;;;3.40;1.40;;;;;;637279;221;31740;-72
2020/12/30 11:07:32;;;;;;;2.03;1.93;;;3.50;1.40;;;;;;658280;216;23448;-72
2020/12/30 11:10:00;;;;;;;2.33;2.17;;;3.50;1.40;;;;;;630992;225;24543;-72
2020/12/30 11:12:28;;;;;;;2.40;2.13;;;3.40;1.40;;;;;;601656;226;41914;-71
2020/12/30 11:14:55;;;;;;;3.37;2.73;;;3.40;1.40;;;;;;614797;231;25728;-71
2020/12/30 11:17:23;;;;;;;3.20;3.00;;;3.40;1.40;;;;;;614795;232;25687;-72
2020/12/30 11:19:51;;;;;;;3.43;3.03;;;3.40;1.40;;;;;;603140;236;24659;-72
2020/12/30 11:22:18;;;;;;;3.90;2.97;;;3.60;1.40;;;;;;599005;236;32848;-72
2020/12/30 11:24:45;;;;;;;3.17;2.30;;;3.70;1.40;;;;;;609521;231;32257;-72
2020/12/30 11:27:13;;;;;;;3.17;2.87;;;3.90;1.40;;;;;;604066;236;24916;-72
2020/12/30 11:29:41;;;;;;;2.83;2.50;;;3.90;1.40;;;;;;604213;236;24673;-72
2020/12/30 11:32:08;;;;;;;2.80;2.60;;;3.90;1.40;;;;;;603443;235;24627;-70
2020/12/30 11:34:36;;;;;;;3.03;2.30;;;4.00;1.40;;;;;;604804;235;24696;-71
2020/12/30 11:37:03;;;;;;;2.57;2.37;;;3.90;1.40;;;;;;605416;235;24647;-71
2020/12/30 11:39:31;;;;;;;2.27;1.90;;;4.20;1.40;;;;;;606274;235;25748;-71
2020/12/30 11:41:58;;;;;;;1.95;1.70;;;4.40;1.40;;;;;;600061;235;32349;-71
2020/12/30 11:44:26;;;;;;;2.27;1.90;;;4.30;1.40;;;;;;616360;232;23532;-71
2020/12/30 11:49:31;;;;;;;2.72;1.90;;;4.20;1.40;;;;;;649230;216;31620;-70
2020/12/30 11:52:00;;;;;;;2.50;2.30;;;4.20;1.40;;;;;;640787;220;23543;-72
2020/12/30 11:54:27;;;;;;;4.30;2.13;;;4.20;1.40;;;;;;640420;221;24816;-72
2020/12/30 11:56:55;;;;;;;1.87;1.77;;;4.10;1.40;;;;;;642027;221;24504;-72
2020/12/30 11:59:23;;;;;;;2.00;1.80;;;4.10;1.40;;;;;;637933;221;33529;-71
2020/12/30 12:01:51;;;;;;;2.40;2.20;;;4.10;1.40;;;;;;641026;221;23547;-70
2020/12/30 12:04:18;;;;;;;4.10;2.90;;;4.20;1.40;;;;;;640262;221;24548;-71
2020/12/30 12:06:46;;;;;;;2.33;2.13;;;4.10;1.40;;;;;;640301;220;24507;-71
2020/12/30 12:09:14;;;;;;;2.20;2.00;;;4.20;1.40;;;;;;640968;221;24543;-71
2020/12/30 12:11:41;;;;;;;3.10;2.90;;;4.10;1.40;;;;;;640092;221;24554;-71
2020/12/30 12:14:09;;;;;;;3.03;2.30;;;4.00;1.40;;;;;;611823;220;45347;-69
2020/12/30 12:16:37;;;;;;;3.10;2.62;;;4.00;1.40;;;;;;628001;225;32281;-70
2020/12/30 12:19:04;;;;;;;4.43;3.10;;;4.10;1.40;;;;;;628786;225;31936;-71
2020/12/30 12:21:32;;;;;;;4.00;3.60;;;4.30;1.40;;;;;;623452;229;23587;-71
2020/12/30 12:23:59;;;;;;;4.40;3.03;;;4.50;1.40;;;;;;631788;225;24503;-71
2020/12/30 12:26:27;;;;;;;3.57;3.20;;;4.60;1.40;;;;;;618829;230;24569;-70
2020/12/30 12:28:57;;;;;;;5.30;3.97;;;4.60;1.40;;;;;;623639;229;24547;-70
2020/12/30 12:31:25;;;;;;;3.73;2.67;;;4.70;1.40;;;;;;634539;225;24510;-71
2020/12/30 12:33:52;;;;;;;3.30;3.00;;;4.80;1.40;;;;;;633916;225;24502;-71
2020/12/30 12:36:20;;;;;;;3.93;3.50;;;4.80;1.40;;;;;;633507;225;25570;-70
2020/12/30 12:38:48;;;;;;;3.40;3.10;;;4.50;1.40;;;;;;621575;229;24554;-70
2020/12/30 12:43:49;;;;;;;5.28;3.40;;;4.40;1.40;;;;;;644642;212;31730;-69
2020/12/30 12:46:17;;;;;;;6.20;3.77;;;4.40;1.40;;;;;;629780;225;23517;-70
2020/12/30 12:48:45;;;;;;;2.97;2.57;;;4.40;1.40;;;;;;628357;225;26643;-70
2020/12/30 12:51:12;;;;;;;3.40;3.10;;;4.40;1.40;;;;;;659014;215;24466;-71
2020/12/30 12:53:40;;;;;;;4.07;3.67;;;4.50;1.40;;;;;;659445;215;24473;-71
2020/12/30 12:58:42;;;;;;;3.90;3.12;;;4.70;1.40;;;;;;646863;216;31587;-69
2020/12/30 13:01:09;;;;;;;3.67;3.27;;;5.00;1.40;;;;;;640623;221;23953;-70
2020/12/30 13:03:37;;;;;;;3.37;2.90;;;5.30;1.40;;;;;;642580;221;24645;-71
2020/12/30 13:06:04;;;;;;;5.73;3.70;;;5.60;1.40;;;;;;639528;221;25821;-71
2020/12/30 13:08:32;;;;;;;2.97;2.73;;;6.20;1.40;;;;;;642370;221;24850;-71
2020/12/30 13:10:59;;;;;;;3.93;3.00;;;8.40;1.40;;;;;;640258;221;27819;-71
2020/12/30 13:13:27;;;;;;;2.63;2.43;;;7.20;1.40;;;;;;641336;220;24490;-71
2020/12/30 13:15:55;;;;;;;3.03;2.43;;;6.60;1.40;;;;;;643634;221;24494;-70
2020/12/30 13:18:22;;;;;;;3.10;2.80;;;6.20;1.40;;;;;;640662;221;24504;-70
2020/12/30 13:20:50;;;;;;;2.80;2.50;;;5.70;1.40;;;;;;640346;221;24489;-70
2020/12/30 13:23:17;;;;;;;2.97;2.73;;;5.40;1.40;;;;;;641492;220;26682;-71